createdAt,value
2022-09-11T00:01:13.543Z,4.53
2022-09-11T00:03:42.476Z,4.63
2022-09-11T00:06:27.542Z,5.47
2022-09-11T00:09:00.205Z,4.57
2022-09-11T00:11:32.868Z,5.70
2022-09-11T00:14:00.166Z,4.70
2022-09-11T00:16:39.671Z,4.53
2022-09-11T00:19:10.444Z,4.40
2022-09-11T00:21:37.136Z,5.07
2022-09-11T00:24:04.523Z,4.63
2022-09-11T00:26:31.668Z,4.93
2022-09-11T00:28:58.381Z,4.03
2022-09-11T00:31:28.524Z,4.70
2022-09-11T00:33:55.897Z,4.33
2022-09-11T00:36:25.823Z,5.00
2022-09-11T00:38:53.487Z,4.97
2022-09-11T00:41:50.400Z,4.30
2022-09-11T00:44:17.871Z,4.97
2022-09-11T00:46:46.013Z,4.30
2022-09-11T00:49:35.927Z,4.20
2022-09-11T00:52:15.480Z,4.80
2022-09-11T00:55:03.513Z,4.23
2022-09-11T00:57:33.633Z,5.00
2022-09-11T01:00:01.788Z,5.00
2022-09-11T01:02:31.337Z,4.30
2022-09-11T01:04:58.143Z,3.60
2022-09-11T01:07:26.771Z,3.60
2022-09-11T01:09:54.086Z,5.27
2022-09-11T01:12:49.908Z,4.27
2022-09-11T01:15:50.412Z,5.00
2022-09-11T01:22:12.582Z,3.50
2022-09-11T01:25:02.010Z,4.10
2022-09-11T01:27:39.392Z,4.47
2022-09-11T01:30:11.853Z,3.63
2022-09-11T01:33:24.275Z,4.00
2022-09-11T01:36:09.971Z,5.00
2022-09-11T01:38:46.083Z,3.53
2022-09-11T01:41:18.250Z,3.60
2022-09-11T01:44:06.992Z,4.00
2022-09-11T01:46:40.914Z,4.10
2022-09-11T01:49:20.302Z,3.70
2022-09-11T01:51:51.812Z,3.93
2022-09-11T01:54:22.908Z,4.60
2022-09-11T01:57:05.953Z,3.73
2022-09-11T01:59:56.862Z,4.03
2022-09-11T02:02:30.033Z,4.10
2022-09-11T02:05:06.174Z,3.83
2022-09-11T02:07:42.190Z,5.07
2022-09-11T02:10:14.521Z,4.60
2022-09-11T02:12:46.285Z,5.80
2022-09-11T02:15:15.822Z,4.10
2022-09-11T02:18:02.108Z,3.70
2022-09-11T02:20:29.624Z,4.03
2022-09-11T02:22:57.752Z,3.90
2022-09-11T02:25:24.596Z,3.67
2022-09-11T02:27:51.876Z,4.67
2022-09-11T02:30:18.521Z,2.77
2022-09-11T02:32:45.132Z,4.70
2022-09-11T02:35:12.279Z,4.40
2022-09-11T02:37:59.139Z,4.47
2022-09-11T02:40:52.851Z,3.80
2022-09-11T02:43:50.612Z,4.30
2022-09-11T02:46:36.862Z,3.87
2022-09-11T02:49:51.404Z,3.70
2022-09-11T02:52:58.550Z,2.83
2022-09-11T02:55:38.436Z,3.30
2022-09-11T02:58:13.008Z,4.00
2022-09-11T03:00:40.188Z,3.20
2022-09-11T03:03:07.389Z,3.50
2022-09-11T03:05:37.041Z,9.20
2022-09-11T03:08:04.358Z,5.20
2022-09-11T03:10:30.994Z,3.20
2022-09-11T03:12:59.560Z,3.20
2022-09-11T03:15:26.751Z,4.00
2022-09-11T03:17:53.229Z,3.30
2022-09-11T03:20:20.754Z,3.20
2022-09-11T03:22:47.374Z,3.80
2022-09-11T03:25:15.009Z,3.60
2022-09-11T03:27:42.038Z,8.30
2022-09-11T03:30:09.491Z,5.23
2022-09-11T03:32:35.967Z,3.40
2022-09-11T03:35:02.515Z,7.20
2022-09-11T03:37:29.027Z,3.70
2022-09-11T03:39:55.762Z,3.60
2022-09-11T03:42:22.746Z,3.87
2022-09-11T03:44:49.249Z,3.50
2022-09-11T03:47:15.801Z,4.00
2022-09-11T03:49:42.319Z,4.00
2022-09-11T03:52:08.855Z,3.33
2022-09-11T03:54:35.434Z,4.27
2022-09-11T03:57:01.953Z,3.43
2022-09-11T03:59:28.987Z,5.07
2022-09-11T04:01:55.645Z,6.97
2022-09-11T04:04:22.312Z,3.57
2022-09-11T04:06:48.882Z,5.13
2022-09-11T04:09:15.708Z,5.03
2022-09-11T04:11:42.975Z,6.20
2022-09-11T04:14:09.513Z,3.30
2022-09-11T04:16:36.355Z,5.43
2022-09-11T04:19:03.824Z,5.83
2022-09-11T04:21:32.093Z,4.13
2022-09-11T04:23:59.973Z,6.50
2022-09-11T04:26:28.769Z,4.57
2022-09-11T04:28:55.409Z,5.40
2022-09-11T04:31:22.422Z,6.17
2022-09-11T04:33:49.363Z,6.20
2022-09-11T04:36:18.682Z,4.10
2022-09-11T04:39:39.493Z,4.20
2022-09-11T04:42:06.435Z,6.90
2022-09-11T04:44:32.975Z,4.80
2022-09-11T04:46:59.505Z,4.63
2022-09-11T04:49:26.091Z,5.40
2022-09-11T04:51:52.851Z,5.20
2022-09-11T04:54:21.263Z,5.73
2022-09-11T04:56:48.775Z,6.10
2022-09-11T04:59:20.237Z,5.23
2022-09-11T05:01:46.855Z,5.87
2022-09-11T05:04:14.725Z,25.90
2022-09-11T05:06:42.697Z,28.40
2022-09-11T05:09:10.172Z,23.33
2022-09-11T05:11:39.190Z,26.43
2022-09-11T05:14:06.082Z,25.47
2022-09-11T05:16:34.486Z,24.17
2022-09-11T05:19:03.685Z,29.03
2022-09-11T05:21:31.800Z,24.83
2022-09-11T05:24:00.851Z,25.17
2022-09-11T05:26:32.989Z,23.07
2022-09-11T05:29:05.217Z,23.50
2022-09-11T05:31:34.530Z,26.27
2022-09-11T05:34:01.800Z,20.40
2022-09-11T05:36:30.913Z,18.97
2022-09-11T05:38:58.876Z,22.17
2022-09-11T05:41:25.808Z,22.57
2022-09-11T05:43:52.426Z,27.47
2022-09-11T05:46:20.655Z,23.50
2022-09-11T05:48:47.988Z,24.90
2022-09-11T05:51:21.222Z,23.77
2022-09-11T05:53:57.982Z,24.77
2022-09-11T05:56:25.761Z,23.20
2022-09-11T05:58:52.633Z,24.00
2022-09-11T06:01:21.958Z,19.27
2022-09-11T06:03:49.541Z,23.47
2022-09-11T06:06:17.757Z,20.17
2022-09-11T06:08:44.580Z,22.70
2022-09-11T06:11:13.860Z,22.83
2022-09-11T06:13:43.296Z,21.23
2022-09-11T06:16:18.363Z,22.43
2022-09-11T06:18:49.111Z,17.97
2022-09-11T06:21:19.910Z,16.13
2022-09-11T06:23:47.952Z,12.40
2022-09-11T06:26:16.896Z,11.40
2022-09-11T06:28:43.923Z,9.87
2022-09-11T06:31:13.458Z,7.63
2022-09-11T06:33:41.117Z,7.90
2022-09-11T06:36:11.140Z,7.80
2022-09-11T06:38:38.356Z,9.43
2022-09-11T06:41:07.764Z,7.07
2022-09-11T06:43:34.478Z,5.73
2022-09-11T06:46:13.063Z,18.70
2022-09-11T06:48:40.800Z,16.53
2022-09-11T06:51:11.204Z,19.53
2022-09-11T06:53:39.128Z,21.50
2022-09-11T06:56:06.887Z,20.63
2022-09-11T06:58:33.655Z,22.00
2022-09-11T07:01:08.140Z,21.43
2022-09-11T07:03:34.726Z,25.33
2022-09-11T07:06:02.000Z,18.40
2022-09-11T07:08:28.541Z,21.77
2022-09-11T07:10:55.292Z,21.83
2022-09-11T07:13:24.308Z,23.37
2022-09-11T07:16:00.249Z,20.33
2022-09-11T07:18:26.743Z,22.17
2022-09-11T07:20:53.267Z,20.97
2022-09-11T07:23:20.284Z,26.47
2022-09-11T07:25:46.907Z,17.73
2022-09-11T07:28:13.404Z,20.30
2022-09-11T07:30:40.390Z,21.90
2022-09-11T07:33:06.938Z,20.47
2022-09-11T07:35:36.968Z,19.27
2022-09-11T07:38:03.504Z,21.67
2022-09-11T07:40:31.180Z,21.67
2022-09-11T07:42:57.687Z,22.40
2022-09-11T07:45:24.212Z,19.00
2022-09-11T07:47:50.709Z,25.03
2022-09-11T07:50:17.914Z,23.20
2022-09-11T07:52:44.408Z,25.37
2022-09-11T07:55:10.960Z,21.10
2022-09-11T07:57:37.679Z,22.23
2022-09-11T08:00:05.058Z,24.20
2022-09-11T08:02:31.659Z,22.17
2022-09-11T08:04:58.202Z,19.10
2022-09-11T08:07:26.121Z,20.93
2022-09-11T08:10:16.400Z,18.23
2022-09-11T08:12:39.824Z,20.80
2022-09-11T08:15:06.706Z,21.87
2022-09-11T08:17:34.384Z,19.40
2022-09-11T08:20:00.994Z,24.03
2022-09-11T08:22:27.840Z,18.97
2022-09-11T08:24:54.352Z,21.37
2022-09-11T08:27:20.872Z,18.90
2022-09-11T08:29:47.364Z,18.23
2022-09-11T08:32:14.408Z,18.23
2022-09-11T08:34:40.952Z,16.93
2022-09-11T08:37:07.944Z,19.80
2022-09-11T08:39:35.161Z,17.43
2022-09-11T08:42:12.803Z,18.30
2022-09-11T08:44:53.506Z,18.57
2022-09-11T08:47:27.598Z,18.97
2022-09-11T08:50:01.151Z,16.03
2022-09-11T08:52:27.969Z,14.23
2022-09-11T08:54:57.665Z,16.43
2022-09-11T08:57:35.017Z,16.83
2022-09-11T09:00:10.666Z,18.10
2022-09-11T09:03:21.753Z,17.47
2022-09-11T09:05:54.499Z,21.13
2022-09-11T09:08:37.259Z,17.03
2022-09-11T09:11:30.765Z,16.33
2022-09-11T09:14:38.788Z,16.67
2022-09-11T09:17:21.876Z,15.93
2022-09-11T09:19:56.247Z,18.20
2022-09-11T09:22:42.676Z,15.27
2022-09-11T09:25:14.576Z,19.00
2022-09-11T09:27:47.855Z,18.60
2022-09-11T09:30:17.347Z,16.23
2022-09-11T09:32:50.815Z,19.30
2022-09-11T09:35:24.909Z,17.87
2022-09-11T09:37:51.536Z,19.30
2022-09-11T09:40:18.982Z,19.47
2022-09-11T09:43:11.109Z,19.63
2022-09-11T09:46:16.403Z,19.90
2022-09-11T09:48:43.413Z,22.03
2022-09-11T09:51:13.472Z,20.33
2022-09-11T09:53:48.044Z,19.57
2022-09-11T09:56:16.698Z,23.50
2022-09-11T09:59:02.543Z,20.97
2022-09-11T10:01:49.366Z,28.17
2022-09-11T10:04:16.576Z,20.10
2022-09-11T10:06:45.456Z,18.77
2022-09-11T10:09:27.258Z,15.83
2022-09-11T10:12:19.239Z,14.57
2022-09-11T10:14:55.807Z,13.50
2022-09-11T10:17:33.445Z,10.53
2022-09-11T10:20:26.575Z,9.63
2022-09-11T10:22:54.809Z,13.30
2022-09-11T10:25:26.627Z,9.30
2022-09-11T10:28:08.943Z,9.10
2022-09-11T10:30:39.194Z,12.17
2022-09-11T10:33:30.022Z,9.73
2022-09-11T10:35:58.276Z,9.70
2022-09-11T10:38:32.195Z,10.07
2022-09-11T10:41:18.803Z,9.90
2022-09-11T10:44:01.528Z,9.23
2022-09-11T10:46:39.318Z,6.70
2022-09-11T10:49:05.987Z,7.80
2022-09-11T10:51:37.726Z,10.47
2022-09-11T10:54:38.426Z,8.07
2022-09-11T10:57:21.218Z,10.43
2022-09-11T11:00:12.516Z,5.53
2022-09-11T11:02:44.599Z,8.97
2022-09-11T11:05:29.697Z,10.60
2022-09-11T11:07:56.162Z,6.63
2022-09-11T11:11:14.581Z,7.07
2022-09-11T11:14:16.541Z,6.23
2022-09-11T11:16:53.596Z,5.83
2022-09-11T11:19:42.597Z,8.10
2022-09-11T11:22:38.240Z,7.70
2022-09-11T11:25:12.376Z,9.50
2022-09-11T11:28:11.747Z,8.60
2022-09-11T11:31:00.888Z,8.17
2022-09-11T11:33:51.736Z,5.50
2022-09-11T11:36:24.219Z,4.83
2022-09-11T11:39:01.904Z,6.70
2022-09-11T11:41:34.235Z,6.07
2022-09-11T11:44:08.033Z,6.20
2022-09-11T11:46:41.702Z,4.90
2022-09-11T11:49:20.427Z,5.83
2022-09-11T11:51:54.147Z,5.00
2022-09-11T11:54:28.844Z,5.80
2022-09-11T11:57:07.789Z,7.67
2022-09-11T12:00:11.459Z,4.73
2022-09-11T12:02:56.145Z,6.40
2022-09-11T12:05:30.389Z,6.37
2022-09-11T12:07:57.177Z,8.33
2022-09-11T12:10:36.123Z,8.27
2022-09-11T12:13:07.340Z,5.97
2022-09-11T12:15:36.638Z,4.70
2022-09-11T12:18:15.173Z,6.93
2022-09-11T12:20:44.302Z,9.57
2022-09-11T12:23:32.419Z,6.33
2022-09-11T12:26:08.016Z,5.97
2022-09-11T12:28:35.687Z,6.53
2022-09-11T12:31:13.816Z,7.00
2022-09-11T12:33:43.536Z,7.77
2022-09-11T12:36:58.111Z,7.40
2022-09-11T12:39:35.550Z,6.50
2022-09-11T12:42:20.967Z,7.73
2022-09-11T12:44:47.430Z,5.10
2022-09-11T12:47:27.340Z,5.07
2022-09-11T12:49:58.838Z,5.87
2022-09-11T12:52:33.934Z,5.00
2022-09-11T12:55:06.650Z,5.73
2022-09-11T12:57:35.942Z,6.10
2022-09-11T13:00:07.929Z,6.00
2022-09-11T13:02:36.508Z,5.27
2022-09-11T13:05:15.653Z,10.00
2022-09-11T13:07:46.926Z,5.73
2022-09-11T13:10:33.456Z,7.40
2022-09-11T13:13:03.219Z,6.80
2022-09-11T13:15:41.646Z,6.27
2022-09-11T13:18:23.910Z,6.20
2022-09-11T13:21:13.626Z,5.70
2022-09-11T13:23:42.956Z,7.10
2022-09-11T13:26:15.770Z,5.77
2022-09-11T13:28:49.157Z,4.50
2022-09-11T13:31:28.109Z,4.60
2022-09-11T13:33:55.086Z,7.57
2022-09-11T13:36:24.574Z,6.20
2022-09-11T13:38:56.733Z,5.67
2022-09-11T13:41:39.772Z,8.23
2022-09-11T13:44:32.634Z,5.37
2022-09-11T13:47:00.381Z,5.77
2022-09-11T13:49:36.233Z,5.50
2022-09-11T13:52:06.690Z,6.53
2022-09-11T13:54:38.108Z,6.10
2022-09-11T13:57:10.064Z,5.83
2022-09-11T13:59:44.389Z,6.77
2022-09-11T14:02:43.682Z,4.97
2022-09-11T14:05:10.322Z,6.53
2022-09-11T14:08:24.990Z,4.60
2022-09-11T14:10:59.413Z,6.00
2022-09-11T14:13:48.710Z,5.07
2022-09-11T14:16:15.272Z,5.73
2022-09-11T14:19:03.849Z,4.90
2022-09-11T14:21:36.314Z,8.07
2022-09-11T14:24:07.109Z,4.20
2022-09-11T14:26:36.664Z,3.80
2022-09-11T14:29:06.906Z,5.00
2022-09-11T14:31:36.877Z,5.27
2022-09-11T14:34:27.624Z,5.77
2022-09-11T14:37:11.051Z,4.20
2022-09-11T14:39:44.856Z,5.10
2022-09-11T14:42:18.068Z,4.97
2022-09-11T14:44:44.804Z,4.47
2022-09-11T14:47:24.317Z,5.20
2022-09-11T14:49:53.360Z,4.10
2022-09-11T14:52:25.701Z,5.80
2022-09-11T14:54:52.619Z,4.23
2022-09-11T14:57:32.392Z,4.40
2022-09-11T14:59:59.449Z,6.13
2022-09-11T15:02:28.557Z,4.13
2022-09-11T15:04:57.069Z,4.90
2022-09-11T15:07:24.433Z,4.97
2022-09-11T15:13:05.290Z,5.77
2022-09-11T15:15:34.885Z,4.30
2022-09-11T15:18:01.561Z,4.27
2022-09-11T15:20:28.227Z,6.67
2022-09-11T15:22:55.904Z,3.83
2022-09-11T15:25:22.911Z,3.70
2022-09-11T15:27:53.217Z,4.40
2022-09-11T15:30:21.199Z,5.67
2022-09-11T15:32:48.780Z,4.53
2022-09-11T15:35:18.137Z,5.03
2022-09-11T15:37:46.768Z,4.80
2022-09-11T15:40:14.044Z,5.13
2022-09-11T15:42:42.036Z,4.53
2022-09-11T15:45:09.234Z,4.20
2022-09-11T15:47:35.785Z,5.67
2022-09-11T15:50:02.387Z,6.00
2022-09-11T15:52:29.386Z,6.13
2022-09-11T15:54:56.561Z,5.70
2022-09-11T15:57:23.143Z,5.67
2022-09-11T15:59:51.521Z,6.07
2022-09-11T16:02:18.615Z,7.53
2022-09-11T16:04:51.646Z,8.73
2022-09-11T16:07:20.176Z,7.33
2022-09-11T16:09:47.169Z,7.47
2022-09-11T16:12:15.536Z,8.40
2022-09-11T16:14:42.120Z,5.70
2022-09-11T16:17:08.744Z,6.33
2022-09-11T16:19:36.095Z,9.53
2022-09-11T16:22:04.815Z,5.70
2022-09-11T16:24:37.108Z,11.90
2022-09-11T16:27:05.900Z,5.37
2022-09-11T16:29:51.470Z,6.60
2022-09-11T16:32:28.087Z,6.23
2022-09-11T16:34:56.727Z,6.43
2022-09-11T16:37:23.325Z,7.17
2022-09-11T16:39:50.645Z,9.73
2022-09-11T16:42:19.560Z,9.23
2022-09-11T16:44:46.184Z,6.20
2022-09-11T16:47:12.717Z,7.70
2022-09-11T16:50:05.288Z,8.20
2022-09-11T16:52:27.563Z,8.13
2022-09-11T16:54:54.298Z,9.20
2022-09-11T16:57:20.814Z,8.27
2022-09-11T16:59:47.576Z,11.67
2022-09-11T17:02:14.536Z,8.67
2022-09-11T17:04:41.067Z,12.93
2022-09-11T17:07:07.597Z,13.50
2022-09-11T17:09:34.151Z,10.13
2022-09-11T17:12:02.468Z,11.10
2022-09-11T17:14:30.071Z,9.30
2022-09-11T17:16:56.683Z,12.03
2022-09-11T17:19:23.237Z,13.10
2022-09-11T17:21:50.735Z,8.27
2022-09-11T17:24:21.430Z,10.33
2022-09-11T17:26:51.871Z,8.70
2022-09-11T17:29:21.644Z,18.70
2022-09-11T17:31:48.612Z,10.30
2022-09-11T17:34:15.444Z,9.10
2022-09-11T17:36:43.159Z,10.37
2022-09-11T17:39:10.189Z,9.60
2022-09-11T17:41:37.234Z,11.53
2022-09-11T17:44:04.305Z,11.90
2022-09-11T17:46:30.936Z,12.40
2022-09-11T17:48:57.576Z,9.10
2022-09-11T17:51:26.427Z,7.83
2022-09-11T17:53:56.135Z,7.83
2022-09-11T17:56:25.311Z,7.70
2022-09-11T17:58:56.595Z,7.97
2022-09-11T18:01:27.986Z,8.73
2022-09-11T18:03:56.567Z,10.70
2022-09-11T18:06:29.042Z,6.17
2022-09-11T18:09:01.570Z,8.30
2022-09-11T18:11:29.881Z,8.30
2022-09-11T18:13:58.082Z,7.67
2022-09-11T18:16:24.912Z,11.37
2022-09-11T18:18:52.066Z,9.07
2022-09-11T18:21:19.091Z,11.83
2022-09-11T18:23:46.553Z,7.17
2022-09-11T18:26:22.092Z,10.10
2022-09-11T18:28:49.978Z,8.63
2022-09-11T18:31:17.039Z,9.87
2022-09-11T18:33:44.154Z,9.97
2022-09-11T18:36:13.323Z,9.87
2022-09-11T18:38:40.416Z,16.50
2022-09-11T18:41:07.421Z,9.03
2022-09-11T18:43:34.073Z,9.63
2022-09-11T18:46:03.577Z,10.00
2022-09-11T18:48:30.105Z,9.83
2022-09-11T18:50:57.265Z,7.70
2022-09-11T18:53:25.812Z,11.30
2022-09-11T18:56:00.498Z,8.83
2022-09-11T18:58:35.526Z,6.87
2022-09-11T19:01:11.325Z,10.33
2022-09-11T19:03:42.085Z,6.63
2022-09-11T19:06:14.251Z,7.57
2022-09-11T19:08:42.867Z,10.83
2022-09-11T19:11:12.334Z,9.63
2022-09-11T19:13:39.769Z,7.07
2022-09-11T19:16:06.887Z,7.73
2022-09-11T19:18:35.381Z,9.47
2022-09-11T19:21:04.929Z,8.00
2022-09-11T19:23:33.662Z,10.40
2022-09-11T19:26:04.589Z,8.07
2022-09-11T19:28:32.438Z,7.70
2022-09-11T19:31:00.898Z,8.73
2022-09-11T19:33:30.442Z,7.93
2022-09-11T19:36:00.168Z,6.73
2022-09-11T19:38:27.302Z,7.30
2022-09-11T19:40:54.324Z,7.23
2022-09-11T19:43:23.541Z,6.67
2022-09-11T19:45:51.157Z,6.00
2022-09-11T19:48:18.313Z,11.13
2022-09-11T19:50:45.533Z,6.50
2022-09-11T19:53:12.123Z,7.07
2022-09-11T19:55:38.736Z,7.60
2022-09-11T19:58:05.602Z,10.30
2022-09-11T20:00:35.000Z,6.43
2022-09-11T20:03:01.900Z,7.13
2022-09-11T20:05:29.630Z,7.83
2022-09-11T20:07:56.641Z,6.33
2022-09-11T20:10:23.685Z,5.47
2022-09-11T20:12:50.643Z,7.10
2022-09-11T20:15:18.029Z,6.60
2022-09-11T20:17:45.404Z,6.13
2022-09-11T20:20:12.368Z,6.30
2022-09-11T20:22:38.888Z,5.80
2022-09-11T20:25:06.056Z,6.30
2022-09-11T20:27:33.197Z,6.33
2022-09-11T20:30:00.611Z,7.47
2022-09-11T20:32:27.438Z,6.37
2022-09-11T20:34:53.976Z,7.07
2022-09-11T20:37:20.502Z,5.93
2022-09-11T20:39:47.552Z,6.60
2022-09-11T20:42:14.217Z,7.07
2022-09-11T20:44:40.870Z,6.87
2022-09-11T20:47:09.314Z,5.00
2022-09-11T20:49:35.823Z,11.67
2022-09-11T20:52:03.593Z,4.87
2022-09-11T20:54:30.152Z,5.20
2022-09-11T20:56:56.673Z,6.30
2022-09-11T20:59:23.213Z,7.00
2022-09-11T21:01:49.809Z,6.90
2022-09-11T21:04:16.397Z,6.30
2022-09-11T21:06:42.925Z,8.07
2022-09-11T21:09:11.165Z,5.47
2022-09-11T21:11:39.323Z,5.20
2022-09-11T21:14:06.539Z,8.57
2022-09-11T21:16:33.671Z,5.07
2022-09-11T21:19:02.055Z,5.90
2022-09-11T21:21:29.628Z,5.63
2022-09-11T21:23:58.649Z,4.80
2022-09-11T21:26:27.333Z,5.40
2022-09-11T21:28:54.300Z,4.60
2022-09-11T21:31:21.342Z,5.93
2022-09-11T21:33:48.341Z,5.70
2022-09-11T21:36:14.925Z,5.10
2022-09-11T21:38:41.527Z,4.97
2022-09-11T21:41:10.250Z,6.63
2022-09-11T21:43:37.543Z,4.30
2022-09-11T21:46:05.776Z,5.87
2022-09-11T21:48:36.694Z,5.60
2022-09-11T21:51:09.866Z,6.17
2022-09-11T21:53:37.957Z,4.43
2022-09-11T21:56:05.288Z,4.57
2022-09-11T21:58:32.308Z,3.80
2022-09-11T22:01:05.961Z,3.90
2022-09-11T22:03:32.676Z,5.20
2022-09-11T22:05:59.229Z,5.23
2022-09-11T22:08:25.756Z,4.37
2022-09-11T22:10:52.278Z,4.90
2022-09-11T22:13:19.809Z,4.70
2022-09-11T22:15:48.525Z,9.93
2022-09-11T22:18:16.945Z,4.87
2022-09-11T22:20:44.123Z,5.40
2022-09-11T22:23:16.253Z,5.17
2022-09-11T22:25:43.945Z,6.83
2022-09-11T22:28:10.597Z,6.97
2022-09-11T22:30:41.659Z,4.40
2022-09-11T22:33:08.726Z,4.87
2022-09-11T22:35:35.606Z,3.80
2022-09-11T22:38:02.149Z,5.80
2022-09-11T22:40:28.838Z,4.80
2022-09-11T22:42:55.545Z,3.80
2022-09-11T22:45:22.165Z,5.00
2022-09-11T22:47:48.723Z,3.80
2022-09-11T22:50:15.584Z,4.03
2022-09-11T22:52:42.112Z,5.10
2022-09-11T22:55:09.365Z,6.23
2022-09-11T22:57:37.817Z,4.77
2022-09-11T23:00:07.162Z,3.57
2022-09-11T23:02:33.828Z,6.20
2022-09-11T23:05:18.925Z,4.03
2022-09-11T23:07:49.067Z,5.30
2022-09-11T23:10:15.975Z,4.10
2022-09-11T23:12:43.441Z,4.57
2022-09-11T23:15:10.490Z,4.37
2022-09-11T23:17:37.073Z,4.50
2022-09-11T23:20:04.344Z,4.23
2022-09-11T23:22:30.917Z,3.63
2022-09-11T23:24:57.518Z,4.27
2022-09-11T23:27:24.123Z,3.90
2022-09-11T23:29:50.669Z,5.80
2022-09-11T23:32:17.191Z,5.47
2022-09-11T23:34:43.704Z,4.47
2022-09-11T23:37:10.239Z,3.83
2022-09-11T23:39:36.799Z,5.17
2022-09-11T23:42:03.430Z,5.33
2022-09-11T23:44:29.967Z,4.73
2022-09-11T23:46:57.134Z,3.53
2022-09-11T23:49:23.651Z,3.70
2022-09-11T23:51:50.209Z,3.90
2022-09-11T23:54:16.753Z,4.90
2022-09-11T23:56:43.638Z,5.07
2022-09-11T23:59:11.628Z,5.07
